EDHI/XFW METAR and TAF weather

Enter ICAO airport designator
Station Type Date Time Source
EDHI METAR 2020/04/07 04:50 UTC NOAA

EDHI 070450Z 31006KT 9000 BKN006 09/08 Q1029


Station Type Date Time Source
EDHI Decoded METAR 2020/04/07 04:50 UTC NOAA

Hamburg-Finkenwerder, Germany (EDHI) 53-32N 009-50E 13M
Apr 07, 2020 - 12:50 AM EDT / 2020.04.07 0450 UTC
Wind: from the NW (310 degrees) at 7 MPH (6 KT):0
Visibility: 5 mile(s):0
Sky conditions: mostly cloudy
Temperature: 48 F (9 C)
Dew Point: 46 F (8 C)
Relative Humidity: 93%
Pressure (altimeter): 30.39 in. Hg (1029 hPa)
ob: EDHI 070450Z 31006KT 9000 BKN006 09/08 Q1029
cycle: 5

Station Type Date Time Source
EDHI TAF 2010/02/22 14:20 UTC NOAA

METAR EDHI 221420Z 17005KT 9999 BKN030 05/02 Q0989

Example: see airport list